sensor_id;sensor_type;location;lat;lon;timestamp;pressure;altitude;pressure_sealevel;temperature;humidity
60240;BME280;46102;39.012;-7.064;2023-04-04T00:01:30;97873.59;;;15.15;57.52
60240;BME280;46102;39.012;-7.064;2023-04-04T00:03:31;97872.78;;;15.15;57.50
60240;BME280;46102;39.012;-7.064;2023-04-04T00:05:32;97869.56;;;15.13;57.44
60240;BME280;46102;39.012;-7.064;2023-04-04T00:07:34;97872.78;;;15.15;57.42
60240;BME280;46102;39.012;-7.064;2023-04-04T00:09:35;97874.38;;;15.16;57.49
60240;BME280;46102;39.012;-7.064;2023-04-04T00:11:36;97872.72;;;15.11;57.66
60240;BME280;46102;39.012;-7.064;2023-04-04T00:13:37;97872.72;;;15.11;57.48
60240;BME280;46102;39.012;-7.064;2023-04-04T00:15:38;97874.31;;;15.12;57.54
60240;BME280;46102;39.012;-7.064;2023-04-04T00:17:39;97859.63;;;15.08;57.47
60240;BME280;46102;39.012;-7.064;2023-04-04T00:19:40;97860.06;;;15.10;57.32
60240;BME280;46102;39.012;-7.064;2023-04-04T00:21:40;97867.63;;;15.13;57.32
60240;BME280;46102;39.012;-7.064;2023-04-04T00:23:41;97860.50;;;15.12;57.27
60240;BME280;46102;39.012;-7.064;2023-04-04T00:25:42;97861.66;;;15.11;57.49
60240;BME280;46102;39.012;-7.064;2023-04-04T00:27:43;97856.16;;;15.11;57.54
60240;BME280;46102;39.012;-7.064;2023-04-04T00:29:44;97861.94;;;15.06;57.85
60240;BME280;46102;39.012;-7.064;2023-04-04T00:31:46;97860.72;;;15.04;57.93
60240;BME280;46102;39.012;-7.064;2023-04-04T00:33:47;97859.84;;;14.99;58.02
60240;BME280;46102;39.012;-7.064;2023-04-04T00:35:48;97857.44;;;14.98;58.27
60240;BME280;46102;39.012;-7.064;2023-04-04T00:37:49;97861.75;;;14.95;58.10
60240;BME280;46102;39.012;-7.064;2023-04-04T00:39:50;97856.28;;;14.99;58.24
60240;BME280;46102;39.012;-7.064;2023-04-04T00:41:51;97853.81;;;14.94;58.32
60240;BME280;46102;39.012;-7.064;2023-04-04T00:43:53;97855.78;;;14.93;58.21
60240;BME280;46102;39.012;-7.064;2023-04-04T00:45:54;97847.56;;;14.97;58.09
60240;BME280;46102;39.012;-7.064;2023-04-04T00:47:56;97848.66;;;14.92;58.30
60240;BME280;46102;39.012;-7.064;2023-04-04T00:49:58;97846.09;;;14.84;58.24
60240;BME280;46102;39.012;-7.064;2023-04-04T00:51:59;97837.00;;;14.83;58.39
60240;BME280;46102;39.012;-7.064;2023-04-04T00:54:00;97843.78;;;14.86;58.30
60240;BME280;46102;39.012;-7.064;2023-04-04T00:56:01;97840.16;;;14.82;58.01
60240;BME280;46102;39.012;-7.064;2023-04-04T00:58:02;97838.63;;;14.84;57.86
60240;BME280;46102;39.012;-7.064;2023-04-04T01:00:04;97839.13;;;14.90;57.79
60240;BME280;46102;39.012;-7.064;2023-04-04T01:02:06;97838.41;;;14.93;58.07
60240;BME280;46102;39.012;-7.064;2023-04-04T01:04:07;97838.78;;;14.91;58.69
60240;BME280;46102;39.012;-7.064;2023-04-04T01:06:08;97842.09;;;14.81;58.71
60240;BME280;46102;39.012;-7.064;2023-04-04T01:08:09;97836.78;;;14.72;59.09
60240;BME280;46102;39.012;-7.064;2023-04-04T01:10:10;97833.16;;;14.68;59.38
60240;BME280;46102;39.012;-7.064;2023-04-04T01:12:12;97830.75;;;14.67;59.69
60240;BME280;46102;39.012;-7.064;2023-04-04T01:14:13;97828.34;;;14.65;59.85
60240;BME280;46102;39.012;-7.064;2023-04-04T01:16:14;97828.19;;;14.58;59.99
60240;BME280;46102;39.012;-7.064;2023-04-04T01:18:18;97823.84;;;14.57;60.13
60240;BME280;46102;39.012;-7.064;2023-04-04T01:20:23;97832.50;;;14.55;59.98
60240;BME280;46102;39.012;-7.064;2023-04-04T01:22:28;97829.16;;;14.50;60.07
60240;BME280;46102;39.012;-7.064;2023-04-04T01:24:32;97832.84;;;14.38;60.39
60240;BME280;46102;39.012;-7.064;2023-04-04T01:26:33;97837.41;;;14.30;60.68
60240;BME280;46102;39.012;-7.064;2023-04-04T01:28:37;97828.97;;;14.23;60.77
60240;BME280;46102;39.012;-7.064;2023-04-04T01:30:43;97833.69;;;14.23;60.99
60240;BME280;46102;39.012;-7.064;2023-04-04T01:33:06;97830.13;;;14.22;61.23
60240;BME280;46102;39.012;-7.064;2023-04-04T01:37:43;97822.78;;;14.10;61.55
60240;BME280;46102;39.012;-7.064;2023-04-04T01:39:59;97815.47;;;14.02;61.83
60240;BME280;46102;39.012;-7.064;2023-04-04T01:42:06;97814.34;;;14.03;61.53
60240;BME280;46102;39.012;-7.064;2023-04-04T01:44:08;97822.06;;;13.98;61.58
60240;BME280;46102;39.012;-7.064;2023-04-04T01:46:09;97815.41;;;13.99;61.45
60240;BME280;46102;39.012;-7.064;2023-04-04T01:48:10;97810.59;;;13.95;61.47
60240;BME280;46102;39.012;-7.064;2023-04-04T01:50:11;97814.50;;;13.94;61.40
60240;BME280;46102;39.012;-7.064;2023-04-04T01:52:13;97803.84;;;13.93;61.68
60240;BME280;46102;39.012;-7.064;2023-04-04T01:54:14;97804.56;;;13.90;61.87
60240;BME280;46102;39.012;-7.064;2023-04-04T01:56:15;97804.47;;;13.86;61.73
60240;BME280;46102;39.012;-7.064;2023-04-04T01:58:16;97802.88;;;13.85;61.29
60240;BME280;46102;39.012;-7.064;2023-04-04T02:00:17;97803.13;;;13.80;61.68
60240;BME280;46102;39.012;-7.064;2023-04-04T02:02:18;97806.78;;;13.84;61.48
60240;BME280;46102;39.012;-7.064;2023-04-04T02:04:19;97802.88;;;13.85;60.99
60240;BME280;46102;39.012;-7.064;2023-04-04T02:06:20;97802.88;;;13.85;61.13
60240;BME280;46102;39.012;-7.064;2023-04-04T02:08:22;97798.75;;;13.95;61.11
60240;BME280;46102;39.012;-7.064;2023-04-04T02:10:28;97792.63;;;13.86;61.10
60240;BME280;46102;39.012;-7.064;2023-04-04T02:12:29;97790.06;;;13.77;61.36
60240;BME280;46102;39.012;-7.064;2023-04-04T02:14:30;97787.22;;;13.73;61.31
60240;BME280;46102;39.012;-7.064;2023-04-04T02:16:31;97790.63;;;13.67;61.39
60240;BME280;46102;39.012;-7.064;2023-04-04T02:18:32;97792.91;;;13.65;61.64
60240;BME280;46102;39.012;-7.064;2023-04-04T02:20:33;97785.44;;;13.65;61.53
60240;BME280;46102;39.012;-7.064;2023-04-04T02:22:34;97787.41;;;13.65;61.71
60240;BME280;46102;39.012;-7.064;2023-04-04T02:24:35;97787.13;;;13.54;61.95
60240;BME280;46102;39.012;-7.064;2023-04-04T02:26:36;97787.47;;;13.52;62.34
60240;BME280;46102;39.012;-7.064;2023-04-04T02:28:39;97783.47;;;13.50;62.15
60240;BME280;46102;39.012;-7.064;2023-04-04T02:30:40;97783.75;;;13.45;62.48
60240;BME280;46102;39.012;-7.064;2023-04-04T02:32:41;97781.00;;;13.45;62.48
60240;BME280;46102;39.012;-7.064;2023-04-04T02:34:46;97779.75;;;13.42;62.33
60240;BME280;46102;39.012;-7.064;2023-04-04T02:36:47;97776.09;;;13.38;62.74
60240;BME280;46102;39.012;-7.064;2023-04-04T02:38:50;97778.53;;;13.40;62.27
60240;BME280;46102;39.012;-7.064;2023-04-04T02:40:51;97774.25;;;13.42;62.41
60240;BME280;46102;39.012;-7.064;2023-04-04T02:42:52;97773.53;;;13.45;62.31
60240;BME280;46102;39.012;-7.064;2023-04-04T02:44:54;97769.97;;;13.45;62.21
60240;BME280;46102;39.012;-7.064;2023-04-04T02:46:55;97776.84;;;13.51;61.29
60240;BME280;46102;39.012;-7.064;2023-04-04T02:49:02;97773.44;;;13.58;61.15
60240;BME280;46102;39.012;-7.064;2023-04-04T02:51:05;97772.91;;;13.52;61.16
60240;BME280;46102;39.012;-7.064;2023-04-04T02:53:07;97771.75;;;13.53;60.88
60240;BME280;46102;39.012;-7.064;2023-04-04T02:55:09;97768.28;;;13.56;61.21
60240;BME280;46102;39.012;-7.064;2023-04-04T02:57:14;97773.81;;;13.56;60.82
60240;BME280;46102;39.012;-7.064;2023-04-04T02:59:15;97765.63;;;13.60;59.89
60240;BME280;46102;39.012;-7.064;2023-04-04T03:01:19;97762.97;;;13.63;59.51
60240;BME280;46102;39.012;-7.064;2023-04-04T03:03:20;97764.75;;;13.71;58.64
60240;BME280;46102;39.012;-7.064;2023-04-04T03:05:25;97767.03;;;13.85;57.10
60240;BME280;46102;39.012;-7.064;2023-04-04T03:07:27;97762.13;;;13.94;57.22
60240;BME280;46102;39.012;-7.064;2023-04-04T03:09:28;97765.78;;;13.99;57.12
60240;BME280;46102;39.012;-7.064;2023-04-04T03:11:30;97766.91;;;13.98;57.52
60240;BME280;46102;39.012;-7.064;2023-04-04T03:13:31;97761.03;;;13.99;57.77
60240;BME280;46102;39.012;-7.064;2023-04-04T03:15:31;97760.25;;;13.99;57.97
60240;BME280;46102;39.012;-7.064;2023-04-04T03:17:32;97755.38;;;13.92;58.09
60240;BME280;46102;39.012;-7.064;2023-04-04T03:19:34;97753.41;;;13.92;57.94
60240;BME280;46102;39.012;-7.064;2023-04-04T03:21:35;97757.31;;;13.91;57.64
60240;BME280;46102;39.012;-7.064;2023-04-04T03:23:35;97757.31;;;13.91;57.04
60240;BME280;46102;39.012;-7.064;2023-04-04T03:25:37;97747.44;;;13.90;57.21
60240;BME280;46102;39.012;-7.064;2023-04-04T03:27:39;97756.50;;;13.91;57.07
60240;BME280;46102;39.012;-7.064;2023-04-04T03:29:41;97753.31;;;13.89;57.16
60240;BME280;46102;39.012;-7.064;2023-04-04T03:31:42;97754.13;;;13.89;57.54
60240;BME280;46102;39.012;-7.064;2023-04-04T03:33:43;97748.53;;;13.86;57.54
60240;BME280;46102;39.012;-7.064;2023-04-04T03:35:44;97741.94;;;13.90;56.71
60240;BME280;46102;39.012;-7.064;2023-04-04T03:37:45;97745.94;;;13.93;55.61
60240;BME280;46102;39.012;-7.064;2023-04-04T03:39:46;97748.06;;;14.00;54.96
60240;BME280;46102;39.012;-7.064;2023-04-04T03:41:47;97744.66;;;14.06;54.03
60240;BME280;46102;39.012;-7.064;2023-04-04T03:43:48;97747.56;;;14.13;53.59
60240;BME280;46102;39.012;-7.064;2023-04-04T03:45:49;97746.66;;;14.25;53.06
60240;BME280;46102;39.012;-7.064;2023-04-04T03:47:50;97751.31;;;14.21;52.67
60240;BME280;46102;39.012;-7.064;2023-04-04T03:49:52;97751.91;;;14.30;52.18
60240;BME280;46102;39.012;-7.064;2023-04-04T03:51:55;97756.69;;;14.33;51.96
60240;BME280;46102;39.012;-7.064;2023-04-04T03:53:56;97764.50;;;14.31;52.18
60240;BME280;46102;39.012;-7.064;2023-04-04T03:55:57;97768.81;;;14.29;51.88
60240;BME280;46102;39.012;-7.064;2023-04-04T03:57:58;97764.47;;;14.28;52.55
60240;BME280;46102;39.012;-7.064;2023-04-04T03:59:59;97770.69;;;14.25;54.19
60240;BME280;46102;39.012;-7.064;2023-04-04T04:02:00;97770.22;;;14.03;56.28
60240;BME280;46102;39.012;-7.064;2023-04-04T04:04:01;97767.81;;;13.86;57.13
60240;BME280;46102;39.012;-7.064;2023-04-04T04:06:02;97767.13;;;13.73;57.73
60240;BME280;46102;39.012;-7.064;2023-04-04T04:08:03;97772.13;;;13.67;57.73
60240;BME280;46102;39.012;-7.064;2023-04-04T04:10:04;97766.50;;;13.64;57.99
60240;BME280;46102;39.012;-7.064;2023-04-04T04:12:06;97764.38;;;13.57;58.41
60240;BME280;46102;39.012;-7.064;2023-04-04T04:14:07;97765.88;;;13.54;58.46
60240;BME280;46102;39.012;-7.064;2023-04-04T04:16:09;97765.09;;;13.54;58.39
60240;BME280;46102;39.012;-7.064;2023-04-04T04:18:10;97762.00;;;13.56;58.49
60240;BME280;46102;39.012;-7.064;2023-04-04T04:20:11;97772.28;;;13.59;58.52
60240;BME280;46102;39.012;-7.064;2023-04-04T04:22:17;97773.34;;;13.54;59.38
60240;BME280;46102;39.012;-7.064;2023-04-04T04:24:18;97766.78;;;13.43;60.21
60240;BME280;46102;39.012;-7.064;2023-04-04T04:26:19;97767.28;;;13.32;60.34
60240;BME280;46102;39.012;-7.064;2023-04-04T04:28:22;97769.38;;;13.23;60.97
60240;BME280;46102;39.012;-7.064;2023-04-04T04:30:26;97772.75;;;13.17;61.06
60240;BME280;46102;39.012;-7.064;2023-04-04T04:32:27;97772.69;;;13.13;61.33
60240;BME280;46102;39.012;-7.064;2023-04-04T04:34:28;97779.31;;;13.12;60.75
60240;BME280;46102;39.012;-7.064;2023-04-04T04:36:32;97786.44;;;13.13;61.00
60240;BME280;46102;39.012;-7.064;2023-04-04T04:38:47;97777.72;;;13.11;61.02
60240;BME280;46102;39.012;-7.064;2023-04-04T04:40:49;97780.38;;;13.07;61.65
60240;BME280;46102;39.012;-7.064;2023-04-04T04:42:57;97789.16;;;12.97;62.66
60240;BME280;46102;39.012;-7.064;2023-04-04T04:44:58;97786.78;;;12.83;63.68
60240;BME280;46102;39.012;-7.064;2023-04-04T04:46:59;97781.09;;;12.76;63.96
60240;BME280;46102;39.012;-7.064;2023-04-04T04:49:00;97782.59;;;12.74;64.00
60240;BME280;46102;39.012;-7.064;2023-04-04T04:51:04;97782.50;;;12.70;64.33
60240;BME280;46102;39.012;-7.064;2023-04-04T04:53:14;97782.94;;;12.72;63.79
60240;BME280;46102;39.012;-7.064;2023-04-04T04:55:15;97779.31;;;12.68;63.97
60240;BME280;46102;39.012;-7.064;2023-04-04T04:57:21;97774.94;;;12.67;63.16
60240;BME280;46102;39.012;-7.064;2023-04-04T04:59:22;97776.19;;;12.69;63.15
60240;BME280;46102;39.012;-7.064;2023-04-04T05:01:24;97770.78;;;12.73;62.50
60240;BME280;46102;39.012;-7.064;2023-04-04T05:03:26;97768.56;;;12.79;61.40
60240;BME280;46102;39.012;-7.064;2023-04-04T05:05:27;97775.09;;;12.86;60.97
60240;BME280;46102;39.012;-7.064;2023-04-04T05:07:35;97774.94;;;12.95;58.69
60240;BME280;46102;39.012;-7.064;2023-04-04T05:09:35;97770.41;;;13.03;56.40
60240;BME280;46102;39.012;-7.064;2023-04-04T05:11:37;97778.53;;;13.11;54.66
60240;BME280;46102;39.012;-7.064;2023-04-04T05:13:40;97779.09;;;13.17;53.69
60240;BME280;46102;39.012;-7.064;2023-04-04T05:15:41;97779.47;;;13.31;52.25
60240;BME280;46102;39.012;-7.064;2023-04-04T05:17:42;97773.25;;;13.35;51.74
60240;BME280;46102;39.012;-7.064;2023-04-04T05:19:44;97782.50;;;13.42;51.26
60240;BME280;46102;39.012;-7.064;2023-04-04T05:21:49;97775.22;;;13.50;50.52
60240;BME280;46102;39.012;-7.064;2023-04-04T05:24:01;97781.44;;;13.63;49.05
60240;BME280;46102;39.012;-7.064;2023-04-04T05:26:02;97783.84;;;13.64;49.15
60240;BME280;46102;39.012;-7.064;2023-04-04T05:28:07;97785.91;;;13.67;48.42
60240;BME280;46102;39.012;-7.064;2023-04-04T05:30:10;97783.66;;;13.73;48.37
60240;BME280;46102;39.012;-7.064;2023-04-04T05:32:22;97789.44;;;13.84;47.61
60240;BME280;46102;39.012;-7.064;2023-04-04T05:34:32;97785.88;;;13.83;47.63
60240;BME280;46102;39.012;-7.064;2023-04-04T05:36:34;97789.09;;;13.85;46.89
60240;BME280;46102;39.012;-7.064;2023-04-04T05:38:39;97789.16;;;13.89;46.72
60240;BME280;46102;39.012;-7.064;2023-04-04T05:40:41;97794.78;;;13.92;46.45
60240;BME280;46102;39.012;-7.064;2023-04-04T05:42:53;97792.34;;;13.91;46.28
60240;BME280;46102;39.012;-7.064;2023-04-04T05:44:56;97785.06;;;13.99;45.99
60240;BME280;46102;39.012;-7.064;2023-04-04T05:46:58;97783.00;;;13.95;45.96
60240;BME280;46102;39.012;-7.064;2023-04-04T05:49:02;97785.31;;;13.93;45.80
60240;BME280;46102;39.012;-7.064;2023-04-04T05:51:04;97784.47;;;13.89;45.77
60240;BME280;46102;39.012;-7.064;2023-04-04T05:53:16;97780.25;;;13.95;45.19
60240;BME280;46102;39.012;-7.064;2023-04-04T05:55:20;97786.59;;;13.96;44.96
60240;BME280;46102;39.012;-7.064;2023-04-04T05:57:22;97783.47;;;13.98;44.78
60240;BME280;46102;39.012;-7.064;2023-04-04T05:59:27;97781.50;;;13.98;44.70
60240;BME280;46102;39.012;-7.064;2023-04-04T06:01:35;97786.31;;;14.01;44.82
60240;BME280;46102;39.012;-7.064;2023-04-04T06:03:42;97785.88;;;13.99;44.47
60240;BME280;46102;39.012;-7.064;2023-04-04T06:05:51;97787.44;;;14.00;44.59
60240;BME280;46102;39.012;-7.064;2023-04-04T06:07:52;97793.25;;;13.95;44.82
60240;BME280;46102;39.012;-7.064;2023-04-04T06:09:53;97789.25;;;13.92;44.50
60240;BME280;46102;39.012;-7.064;2023-04-04T06:11:54;97792.53;;;13.98;44.69
60240;BME280;46102;39.012;-7.064;2023-04-04T06:13:55;97792.81;;;13.93;44.82
60240;BME280;46102;39.012;-7.064;2023-04-04T06:15:58;97795.56;;;13.93;44.96
60240;BME280;46102;39.012;-7.064;2023-04-04T06:17:59;97797.44;;;13.89;44.80
60240;BME280;46102;39.012;-7.064;2023-04-04T06:20:02;97800.75;;;13.79;44.90
60240;BME280;46102;39.012;-7.064;2023-04-04T06:22:04;97798.78;;;13.79;45.01
60240;BME280;46102;39.012;-7.064;2023-04-04T06:24:08;97805.81;;;13.77;45.25
60240;BME280;46102;39.012;-7.064;2023-04-04T06:26:09;97805.00;;;13.76;44.85
60240;BME280;46102;39.012;-7.064;2023-04-04T06:28:12;97804.63;;;13.78;45.06
60240;BME280;46102;39.012;-7.064;2023-04-04T06:30:16;97809.00;;;13.79;44.86
60240;BME280;46102;39.012;-7.064;2023-04-04T06:32:21;97810.59;;;13.80;44.61
60240;BME280;46102;39.012;-7.064;2023-04-04T06:34:22;97812.28;;;13.84;44.45
60240;BME280;46102;39.012;-7.064;2023-04-04T06:36:27;97812.03;;;13.89;44.11
60240;BME280;46102;39.012;-7.064;2023-04-04T06:38:31;97815.84;;;14.01;43.55
60240;BME280;46102;39.012;-7.064;2023-04-04T06:40:36;97816.19;;;13.99;43.48
60240;BME280;46102;39.012;-7.064;2023-04-04T06:42:38;97817.16;;;14.07;43.16
60240;BME280;46102;39.012;-7.064;2023-04-04T06:44:40;97820.63;;;14.04;43.70
60240;BME280;46102;39.012;-7.064;2023-04-04T06:46:41;97828.03;;;14.00;43.42
60240;BME280;46102;39.012;-7.064;2023-04-04T06:48:41;97823.56;;;14.11;43.38
60240;BME280;46102;39.012;-7.064;2023-04-04T06:50:43;97828.63;;;14.09;43.37
60240;BME280;46102;39.012;-7.064;2023-04-04T06:52:47;97825.97;;;14.12;43.15
60240;BME280;46102;39.012;-7.064;2023-04-04T06:54:49;97829.69;;;14.20;43.17
60240;BME280;46102;39.012;-7.064;2023-04-04T06:56:50;97834.50;;;14.23;42.73
60240;BME280;46102;39.012;-7.064;2023-04-04T06:58:52;97837.44;;;14.14;43.03
60240;BME280;46102;39.012;-7.064;2023-04-04T07:00:55;97835.34;;;14.27;42.73
60240;BME280;46102;39.012;-7.064;2023-04-04T07:02:57;97838.31;;;14.34;42.60
60240;BME280;46102;39.012;-7.064;2023-04-04T07:05:01;97842.94;;;14.30;42.55
60240;BME280;46102;39.012;-7.064;2023-04-04T07:07:03;97846.13;;;14.32;42.43
60240;BME280;46102;39.012;-7.064;2023-04-04T07:09:04;97855.31;;;14.36;42.02
60240;BME280;46102;39.012;-7.064;2023-04-04T07:11:04;97852.69;;;14.44;41.82
60240;BME280;46102;39.012;-7.064;2023-04-04T07:13:07;97846.44;;;14.47;42.11
60240;BME280;46102;39.012;-7.064;2023-04-04T07:15:09;97849.31;;;14.50;41.95
60240;BME280;46102;39.012;-7.064;2023-04-04T07:17:10;97854.28;;;14.61;41.98
60240;BME280;46102;39.012;-7.064;2023-04-04T07:19:11;97849.72;;;14.68;41.57
60240;BME280;46102;39.012;-7.064;2023-04-04T07:21:11;97853.72;;;14.71;41.63
60240;BME280;46102;39.012;-7.064;2023-04-04T07:23:13;97858.59;;;14.77;41.42
60240;BME280;46102;39.012;-7.064;2023-04-04T07:25:14;97863.09;;;14.86;41.02
60240;BME280;46102;39.012;-7.064;2023-04-04T07:27:15;97869.16;;;14.91;41.26
60240;BME280;46102;39.012;-7.064;2023-04-04T07:29:16;97869.00;;;15.04;41.03
60240;BME280;46102;39.012;-7.064;2023-04-04T07:31:17;97869.75;;;15.20;40.76
60240;BME280;46102;39.012;-7.064;2023-04-04T07:33:18;97876.78;;;15.17;40.70
60240;BME280;46102;39.012;-7.064;2023-04-04T07:35:18;97879.03;;;15.31;40.51
60240;BME280;46102;39.012;-7.064;2023-04-04T07:37:19;97879.66;;;15.44;40.14
60240;BME280;46102;39.012;-7.064;2023-04-04T07:39:21;97879.00;;;15.51;40.29
60240;BME280;46102;39.012;-7.064;2023-04-04T07:41:23;97881.06;;;15.54;40.33
60240;BME280;46102;39.012;-7.064;2023-04-04T07:43:25;97880.13;;;15.69;40.12
60240;BME280;46102;39.012;-7.064;2023-04-04T07:45:25;97879.25;;;15.85;39.56
60240;BME280;46102;39.012;-7.064;2023-04-04T07:47:26;97882.97;;;15.92;39.42
60240;BME280;46102;39.012;-7.064;2023-04-04T07:49:27;97893.59;;;16.13;39.07
60240;BME280;46102;39.012;-7.064;2023-04-04T07:51:28;97883.84;;;16.23;39.12
60240;BME280;46102;39.012;-7.064;2023-04-04T07:53:30;97883.56;;;16.28;39.08
60240;BME280;46102;39.012;-7.064;2023-04-04T07:55:31;97882.91;;;16.38;39.05
60240;BME280;46102;39.012;-7.064;2023-04-04T07:57:32;97872.38;;;16.48;39.02
60240;BME280;46102;39.012;-7.064;2023-04-04T07:59:33;97887.59;;;16.61;38.61
60240;BME280;46102;39.012;-7.064;2023-04-04T08:01:34;97890.72;;;16.82;38.48
60240;BME280;46102;39.012;-7.064;2023-04-04T08:03:36;97895.69;;;17.00;38.12
60240;BME280;46102;39.012;-7.064;2023-04-04T08:05:37;97886.44;;;17.19;37.94
60240;BME280;46102;39.012;-7.064;2023-04-04T08:07:38;97892.28;;;17.44;37.74
60240;BME280;46102;39.012;-7.064;2023-04-04T08:09:38;97905.19;;;17.66;37.26
60240;BME280;46102;39.012;-7.064;2023-04-04T08:11:39;97902.13;;;17.75;36.87
60240;BME280;46102;39.012;-7.064;2023-04-04T08:13:41;97899.13;;;17.91;36.73
60240;BME280;46102;39.012;-7.064;2023-04-04T08:15:42;97902.84;;;18.06;36.75
60240;BME280;46102;39.012;-7.064;2023-04-04T08:17:43;97915.69;;;18.25;36.62
60240;BME280;46102;39.012;-7.064;2023-04-04T08:19:44;97916.25;;;18.45;36.19
60240;BME280;46102;39.012;-7.064;2023-04-04T08:21:45;97918.34;;;18.59;36.24
60240;BME280;46102;39.012;-7.064;2023-04-04T08:23:46;97909.78;;;18.78;35.87
60240;BME280;46102;39.012;-7.064;2023-04-04T08:25:46;97912.59;;;18.85;35.75
60240;BME280;46102;39.012;-7.064;2023-04-04T08:27:47;97923.34;;;18.90;35.16
60240;BME280;46102;39.012;-7.064;2023-04-04T08:29:48;97917.84;;;19.05;35.08
60240;BME280;46102;39.012;-7.064;2023-04-04T08:31:49;97917.16;;;19.22;35.10
60240;BME280;46102;39.012;-7.064;2023-04-04T08:33:50;97918.41;;;19.35;34.68
60240;BME280;46102;39.012;-7.064;2023-04-04T08:35:51;97912.13;;;19.53;34.55
60240;BME280;46102;39.012;-7.064;2023-04-04T08:37:52;97919.34;;;19.68;34.31
60240;BME280;46102;39.012;-7.064;2023-04-04T08:39:53;97928.16;;;19.92;34.10
60240;BME280;46102;39.012;-7.064;2023-04-04T08:42:03;97922.22;;;20.04;33.78
60240;BME280;46102;39.012;-7.064;2023-04-04T08:44:06;97931.34;;;20.08;33.12
60240;BME280;46102;39.012;-7.064;2023-04-04T08:46:10;97929.38;;;20.05;33.37
60240;BME280;46102;39.012;-7.064;2023-04-04T08:48:14;97935.34;;;20.14;33.71
60240;BME280;46102;39.012;-7.064;2023-04-04T08:50:15;97923.84;;;20.27;33.65
60240;BME280;46102;39.012;-7.064;2023-04-04T08:52:17;97930.22;;;20.45;33.70
60240;BME280;46102;39.012;-7.064;2023-04-04T08:54:20;97926.22;;;20.50;32.91
60240;BME280;46102;39.012;-7.064;2023-04-04T08:56:21;97929.41;;;20.66;33.01
60240;BME280;46102;39.012;-7.064;2023-04-04T08:58:23;97929.41;;;20.84;33.06
60240;BME280;46102;39.012;-7.064;2023-04-04T09:00:24;97933.75;;;20.96;32.47
60240;BME280;46102;39.012;-7.064;2023-04-04T09:04:31;97938.91;;;21.19;31.71
60240;BME280;46102;39.012;-7.064;2023-04-04T09:06:33;97938.41;;;21.38;31.28
60240;BME280;46102;39.012;-7.064;2023-04-04T09:08:34;97939.59;;;21.52;31.09
60240;BME280;46102;39.012;-7.064;2023-04-04T09:10:35;97933.97;;;21.66;30.69
60240;BME280;46102;39.012;-7.064;2023-04-04T09:12:38;97932.28;;;21.79;30.64
60240;BME280;46102;39.012;-7.064;2023-04-04T09:14:42;97939.84;;;21.82;30.12
60240;BME280;46102;39.012;-7.064;2023-04-04T09:16:43;97936.97;;;21.97;30.43
60240;BME280;46102;39.012;-7.064;2023-04-04T09:18:44;97942.03;;;22.16;30.18
60240;BME280;46102;39.012;-7.064;2023-04-04T09:20:46;97937.13;;;22.38;30.11
60240;BME280;46102;39.012;-7.064;2023-04-04T09:22:47;97946.13;;;22.60;29.63
60240;BME280;46102;39.012;-7.064;2023-04-04T09:24:47;97955.53;;;22.81;29.04
60240;BME280;46102;39.012;-7.064;2023-04-04T09:26:52;97957.97;;;22.75;28.98
60240;BME280;46102;39.012;-7.064;2023-04-04T09:28:52;97954.25;;;22.89;28.89
60240;BME280;46102;39.012;-7.064;2023-04-04T09:30:53;97959.38;;;23.01;28.67
60240;BME280;46102;39.012;-7.064;2023-04-04T09:32:54;97962.00;;;23.16;28.75
60240;BME280;46102;39.012;-7.064;2023-04-04T09:34:56;97964.25;;;23.28;28.28
60240;BME280;46102;39.012;-7.064;2023-04-04T09:36:57;97970.88;;;23.45;28.14
60240;BME280;46102;39.012;-7.064;2023-04-04T09:38:59;97966.41;;;23.51;27.65
60240;BME280;46102;39.012;-7.064;2023-04-04T09:41:00;97978.31;;;23.59;27.39
60240;BME280;46102;39.012;-7.064;2023-04-04T09:43:03;97970.75;;;23.56;26.87
60240;BME280;46102;39.012;-7.064;2023-04-04T09:45:07;97976.31;;;23.59;27.32
60240;BME280;46102;39.012;-7.064;2023-04-04T09:47:28;97983.81;;;23.66;27.12
60240;BME280;46102;39.012;-7.064;2023-04-04T09:49:30;97986.53;;;23.77;26.77
60240;BME280;46102;39.012;-7.064;2023-04-04T09:51:34;97989.03;;;23.64;26.76
60240;BME280;46102;39.012;-7.064;2023-04-04T09:53:37;97996.44;;;23.85;27.07
60240;BME280;46102;39.012;-7.064;2023-04-04T09:55:39;97990.91;;;24.08;26.67
60240;BME280;46102;39.012;-7.064;2023-04-04T09:57:40;97999.66;;;24.14;26.54
60240;BME280;46102;39.012;-7.064;2023-04-04T09:59:41;97995.88;;;24.24;26.44
60240;BME280;46102;39.012;-7.064;2023-04-04T10:01:44;97996.84;;;24.41;26.13
60240;BME280;46102;39.012;-7.064;2023-04-04T10:03:52;98002.22;;;24.59;26.14
60240;BME280;46102;39.012;-7.064;2023-04-04T10:08:13;98004.16;;;24.62;25.01
60240;BME280;46102;39.012;-7.064;2023-04-04T10:10:15;98006.06;;;24.69;25.37
60240;BME280;46102;39.012;-7.064;2023-04-04T10:12:16;98004.66;;;24.81;25.57
60240;BME280;46102;39.012;-7.064;2023-04-04T10:14:17;98009.84;;;25.06;24.56
60240;BME280;46102;39.012;-7.064;2023-04-04T10:16:18;98009.56;;;25.24;24.64
60240;BME280;46102;39.012;-7.064;2023-04-04T10:18:22;98012.88;;;25.15;24.02
60240;BME280;46102;39.012;-7.064;2023-04-04T10:20:24;98015.53;;;25.26;23.87
60240;BME280;46102;39.012;-7.064;2023-04-04T10:22:25;98008.41;;;25.21;24.16
60240;BME280;46102;39.012;-7.064;2023-04-04T10:24:26;98008.63;;;25.30;23.74
60240;BME280;46102;39.012;-7.064;2023-04-04T10:26:27;98010.38;;;25.44;23.75
60240;BME280;46102;39.012;-7.064;2023-04-04T10:28:28;98011.47;;;25.50;23.71
60240;BME280;46102;39.012;-7.064;2023-04-04T10:30:29;98014.59;;;25.56;23.96
60240;BME280;46102;39.012;-7.064;2023-04-04T10:33:00;98009.56;;;25.67;23.50
60240;BME280;46102;39.012;-7.064;2023-04-04T10:35:03;98013.56;;;25.86;23.02
60240;BME280;46102;39.012;-7.064;2023-04-04T10:37:12;98014.94;;;25.98;23.19
60240;BME280;46102;39.012;-7.064;2023-04-04T10:39:23;98013.59;;;26.06;23.04
60240;BME280;46102;39.012;-7.064;2023-04-04T10:41:27;98010.63;;;25.93;23.17
60240;BME280;46102;39.012;-7.064;2023-04-04T10:43:31;98011.13;;;26.08;23.30
60240;BME280;46102;39.012;-7.064;2023-04-04T10:45:35;98005.53;;;26.25;23.17
60240;BME280;46102;39.012;-7.064;2023-04-04T10:47:39;97994.19;;;26.48;22.67